sensor_id;sensor_type;location;lat;lon;timestamp;P1;durP1;ratioP1;P2;durP2;ratioP2
529;SDS011;251;48.704;9.210;2022-07-29T00:01:49;3.10;;;2.00;;
529;SDS011;251;48.704;9.210;2022-07-29T00:04:17;2.30;;;1.77;;
529;SDS011;251;48.704;9.210;2022-07-29T00:06:44;4.17;;;2.83;;
529;SDS011;251;48.704;9.210;2022-07-29T00:09:11;4.20;;;2.23;;
529;SDS011;251;48.704;9.210;2022-07-29T00:11:37;2.20;;;1.90;;
529;SDS011;251;48.704;9.210;2022-07-29T00:14:04;2.23;;;1.80;;
529;SDS011;251;48.704;9.210;2022-07-29T00:16:32;2.63;;;1.50;;
529;SDS011;251;48.704;9.210;2022-07-29T00:18:59;2.30;;;1.63;;
529;SDS011;251;48.704;9.210;2022-07-29T00:21:26;2.30;;;2.00;;
529;SDS011;251;48.704;9.210;2022-07-29T00:23:53;1.87;;;1.40;;
529;SDS011;251;48.704;9.210;2022-07-29T00:26:20;3.13;;;2.33;;
529;SDS011;251;48.704;9.210;2022-07-29T00:28:46;2.93;;;1.90;;
529;SDS011;251;48.704;9.210;2022-07-29T00:31:13;2.67;;;1.90;;
529;SDS011;251;48.704;9.210;2022-07-29T00:33:41;2.13;;;1.93;;
529;SDS011;251;48.704;9.210;2022-07-29T00:36:08;2.40;;;2.20;;
529;SDS011;251;48.704;9.210;2022-07-29T00:38:34;3.07;;;2.20;;
529;SDS011;251;48.704;9.210;2022-07-29T00:41:01;2.87;;;2.57;;
529;SDS011;251;48.704;9.210;2022-07-29T00:43:27;3.00;;;2.17;;
529;SDS011;251;48.704;9.210;2022-07-29T00:45:54;3.03;;;2.00;;
529;SDS011;251;48.704;9.210;2022-07-29T00:48:21;5.23;;;2.60;;
529;SDS011;251;48.704;9.210;2022-07-29T00:50:49;2.60;;;2.20;;
529;SDS011;251;48.704;9.210;2022-07-29T00:53:16;3.10;;;2.50;;
529;SDS011;251;48.704;9.210;2022-07-29T00:55:45;3.23;;;2.23;;
529;SDS011;251;48.704;9.210;2022-07-29T00:58:12;3.30;;;3.00;;
529;SDS011;251;48.704;9.210;2022-07-29T01:00:39;3.43;;;2.23;;
529;SDS011;251;48.704;9.210;2022-07-29T01:03:06;3.03;;;2.10;;
529;SDS011;251;48.704;9.210;2022-07-29T01:05:34;3.37;;;1.80;;
529;SDS011;251;48.704;9.210;2022-07-29T01:08:02;3.10;;;2.77;;
529;SDS011;251;48.704;9.210;2022-07-29T01:10:30;2.10;;;1.77;;
529;SDS011;251;48.704;9.210;2022-07-29T01:12:58;2.83;;;2.13;;
529;SDS011;251;48.704;9.210;2022-07-29T01:15:27;3.60;;;2.57;;
529;SDS011;251;48.704;9.210;2022-07-29T01:17:57;3.10;;;2.10;;
529;SDS011;251;48.704;9.210;2022-07-29T01:20:30;2.43;;;2.00;;
529;SDS011;251;48.704;9.210;2022-07-29T01:23:13;1.90;;;1.63;;
529;SDS011;251;48.704;9.210;2022-07-29T01:26:18;2.10;;;1.67;;
529;SDS011;251;48.704;9.210;2022-07-29T01:28:58;4.03;;;1.90;;
529;SDS011;251;48.704;9.210;2022-07-29T01:31:39;2.10;;;1.73;;
529;SDS011;251;48.704;9.210;2022-07-29T01:34:15;2.20;;;1.90;;
529;SDS011;251;48.704;9.210;2022-07-29T01:36:46;1.90;;;1.67;;
529;SDS011;251;48.704;9.210;2022-07-29T01:39:17;1.90;;;1.50;;
529;SDS011;251;48.704;9.210;2022-07-29T01:41:49;3.33;;;1.70;;
529;SDS011;251;48.704;9.210;2022-07-29T01:44:26;2.93;;;2.33;;
529;SDS011;251;48.704;9.210;2022-07-29T01:46:56;3.93;;;1.90;;
529;SDS011;251;48.704;9.210;2022-07-29T01:49:27;3.53;;;1.83;;
529;SDS011;251;48.704;9.210;2022-07-29T01:51:58;1.70;;;1.40;;
529;SDS011;251;48.704;9.210;2022-07-29T01:54:29;3.20;;;1.33;;
529;SDS011;251;48.704;9.210;2022-07-29T01:57:00;2.40;;;1.73;;
529;SDS011;251;48.704;9.210;2022-07-29T01:59:30;2.13;;;1.33;;
529;SDS011;251;48.704;9.210;2022-07-29T02:02:01;2.20;;;1.57;;
529;SDS011;251;48.704;9.210;2022-07-29T02:04:28;2.53;;;1.83;;
529;SDS011;251;48.704;9.210;2022-07-29T02:07:00;2.90;;;2.60;;
529;SDS011;251;48.704;9.210;2022-07-29T02:09:28;3.57;;;2.17;;
529;SDS011;251;48.704;9.210;2022-07-29T02:11:56;2.40;;;1.70;;
529;SDS011;251;48.704;9.210;2022-07-29T02:14:26;4.37;;;2.30;;
529;SDS011;251;48.704;9.210;2022-07-29T02:16:57;4.17;;;1.70;;
529;SDS011;251;48.704;9.210;2022-07-29T02:19:25;2.20;;;1.57;;
529;SDS011;251;48.704;9.210;2022-07-29T02:21:54;3.07;;;2.23;;
529;SDS011;251;48.704;9.210;2022-07-29T02:24:23;2.20;;;1.63;;
529;SDS011;251;48.704;9.210;2022-07-29T02:26:51;2.73;;;1.60;;
529;SDS011;251;48.704;9.210;2022-07-29T02:29:22;2.30;;;1.97;;
529;SDS011;251;48.704;9.210;2022-07-29T02:31:51;1.63;;;1.27;;
529;SDS011;251;48.704;9.210;2022-07-29T02:34:21;2.37;;;1.87;;
529;SDS011;251;48.704;9.210;2022-07-29T02:36:49;1.77;;;1.47;;
529;SDS011;251;48.704;9.210;2022-07-29T02:39:17;2.40;;;2.10;;
529;SDS011;251;48.704;9.210;2022-07-29T02:41:46;1.90;;;1.50;;
529;SDS011;251;48.704;9.210;2022-07-29T02:44:15;2.93;;;1.93;;
529;SDS011;251;48.704;9.210;2022-07-29T02:46:45;2.60;;;2.00;;
529;SDS011;251;48.704;9.210;2022-07-29T02:49:16;2.50;;;1.80;;
529;SDS011;251;48.704;9.210;2022-07-29T02:51:51;3.87;;;2.67;;
529;SDS011;251;48.704;9.210;2022-07-29T02:54:26;2.67;;;1.67;;
529;SDS011;251;48.704;9.210;2022-07-29T02:57:00;2.30;;;1.80;;
529;SDS011;251;48.704;9.210;2022-07-29T02:59:32;2.50;;;1.73;;
529;SDS011;251;48.704;9.210;2022-07-29T03:02:02;2.57;;;1.77;;
529;SDS011;251;48.704;9.210;2022-07-29T03:04:31;2.17;;;1.80;;
529;SDS011;251;48.704;9.210;2022-07-29T03:07:01;2.53;;;1.97;;
529;SDS011;251;48.704;9.210;2022-07-29T03:09:29;2.10;;;1.57;;
529;SDS011;251;48.704;9.210;2022-07-29T03:11:56;2.20;;;1.37;;
529;SDS011;251;48.704;9.210;2022-07-29T03:14:23;2.03;;;1.60;;
529;SDS011;251;48.704;9.210;2022-07-29T03:16:51;2.53;;;2.00;;
529;SDS011;251;48.704;9.210;2022-07-29T03:19:19;2.90;;;1.97;;
529;SDS011;251;48.704;9.210;2022-07-29T03:21:46;1.67;;;1.27;;
529;SDS011;251;48.704;9.210;2022-07-29T03:24:28;2.50;;;1.90;;
529;SDS011;251;48.704;9.210;2022-07-29T03:26:56;1.90;;;1.70;;
529;SDS011;251;48.704;9.210;2022-07-29T03:29:24;1.80;;;1.60;;
529;SDS011;251;48.704;9.210;2022-07-29T03:31:51;2.00;;;1.43;;
529;SDS011;251;48.704;9.210;2022-07-29T03:34:18;2.20;;;1.60;;
529;SDS011;251;48.704;9.210;2022-07-29T03:36:44;2.10;;;1.87;;
529;SDS011;251;48.704;9.210;2022-07-29T03:39:11;2.70;;;1.73;;
529;SDS011;251;48.704;9.210;2022-07-29T03:41:46;3.83;;;1.47;;
529;SDS011;251;48.704;9.210;2022-07-29T03:44:16;1.87;;;1.43;;
529;SDS011;251;48.704;9.210;2022-07-29T03:46:45;2.00;;;1.37;;
529;SDS011;251;48.704;9.210;2022-07-29T03:49:16;2.50;;;2.23;;
529;SDS011;251;48.704;9.210;2022-07-29T03:51:44;2.50;;;2.03;;
529;SDS011;251;48.704;9.210;2022-07-29T03:54:11;1.90;;;1.37;;
529;SDS011;251;48.704;9.210;2022-07-29T03:56:39;2.30;;;1.67;;
529;SDS011;251;48.704;9.210;2022-07-29T03:59:09;3.07;;;2.00;;
529;SDS011;251;48.704;9.210;2022-07-29T04:01:37;3.03;;;2.00;;
529;SDS011;251;48.704;9.210;2022-07-29T04:04:05;1.73;;;1.37;;
529;SDS011;251;48.704;9.210;2022-07-29T04:06:37;2.93;;;1.80;;
529;SDS011;251;48.704;9.210;2022-07-29T04:09:05;2.00;;;1.43;;
529;SDS011;251;48.704;9.210;2022-07-29T04:11:32;2.33;;;2.10;;
529;SDS011;251;48.704;9.210;2022-07-29T04:13:59;2.30;;;1.63;;
529;SDS011;251;48.704;9.210;2022-07-29T04:16:27;2.13;;;1.93;;
529;SDS011;251;48.704;9.210;2022-07-29T04:18:54;2.73;;;1.70;;
529;SDS011;251;48.704;9.210;2022-07-29T04:21:21;2.10;;;1.80;;
529;SDS011;251;48.704;9.210;2022-07-29T04:23:47;2.60;;;1.73;;
529;SDS011;251;48.704;9.210;2022-07-29T04:26:15;2.60;;;1.73;;
529;SDS011;251;48.704;9.210;2022-07-29T04:28:42;2.73;;;1.90;;
529;SDS011;251;48.704;9.210;2022-07-29T04:31:09;2.63;;;2.17;;
529;SDS011;251;48.704;9.210;2022-07-29T04:33:37;2.00;;;1.70;;
529;SDS011;251;48.704;9.210;2022-07-29T04:36:05;2.23;;;1.33;;
529;SDS011;251;48.704;9.210;2022-07-29T04:38:32;1.83;;;1.43;;
529;SDS011;251;48.704;9.210;2022-07-29T04:40:58;2.57;;;1.37;;
529;SDS011;251;48.704;9.210;2022-07-29T04:43:25;2.00;;;1.60;;
529;SDS011;251;48.704;9.210;2022-07-29T04:45:52;5.33;;;2.23;;
529;SDS011;251;48.704;9.210;2022-07-29T04:48:19;2.27;;;1.50;;
529;SDS011;251;48.704;9.210;2022-07-29T04:50:47;2.50;;;2.10;;
529;SDS011;251;48.704;9.210;2022-07-29T04:53:14;2.37;;;1.83;;
529;SDS011;251;48.704;9.210;2022-07-29T04:55:41;3.20;;;2.50;;
529;SDS011;251;48.704;9.210;2022-07-29T04:58:07;2.67;;;1.50;;
529;SDS011;251;48.704;9.210;2022-07-29T05:00:34;2.37;;;1.70;;
529;SDS011;251;48.704;9.210;2022-07-29T05:03:01;2.60;;;1.83;;
529;SDS011;251;48.704;9.210;2022-07-29T05:05:28;4.13;;;1.63;;
529;SDS011;251;48.704;9.210;2022-07-29T05:07:56;2.13;;;1.63;;
529;SDS011;251;48.704;9.210;2022-07-29T05:10:23;2.13;;;1.70;;
529;SDS011;251;48.704;9.210;2022-07-29T05:12:50;1.73;;;1.50;;
529;SDS011;251;48.704;9.210;2022-07-29T05:15:17;2.27;;;1.53;;
529;SDS011;251;48.704;9.210;2022-07-29T05:17:44;3.03;;;2.27;;
529;SDS011;251;48.704;9.210;2022-07-29T05:20:11;2.40;;;1.33;;
529;SDS011;251;48.704;9.210;2022-07-29T05:22:38;2.63;;;2.10;;
529;SDS011;251;48.704;9.210;2022-07-29T05:25:07;2.03;;;1.63;;
529;SDS011;251;48.704;9.210;2022-07-29T05:27:34;2.00;;;1.30;;
529;SDS011;251;48.704;9.210;2022-07-29T05:30:01;2.47;;;1.93;;
529;SDS011;251;48.704;9.210;2022-07-29T05:32:29;2.70;;;1.70;;
529;SDS011;251;48.704;9.210;2022-07-29T05:34:55;3.50;;;1.20;;
529;SDS011;251;48.704;9.210;2022-07-29T05:37:22;2.97;;;1.90;;
529;SDS011;251;48.704;9.210;2022-07-29T05:39:49;2.23;;;1.93;;
529;SDS011;251;48.704;9.210;2022-07-29T05:42:17;1.60;;;1.20;;
529;SDS011;251;48.704;9.210;2022-07-29T05:44:44;3.97;;;1.97;;
529;SDS011;251;48.704;9.210;2022-07-29T05:47:12;1.50;;;1.10;;
529;SDS011;251;48.704;9.210;2022-07-29T05:49:39;2.00;;;1.40;;
529;SDS011;251;48.704;9.210;2022-07-29T05:52:06;1.80;;;1.20;;
529;SDS011;251;48.704;9.210;2022-07-29T05:54:32;1.83;;;1.13;;
529;SDS011;251;48.704;9.210;2022-07-29T05:57:00;2.70;;;1.43;;
529;SDS011;251;48.704;9.210;2022-07-29T05:59:28;1.70;;;1.23;;
529;SDS011;251;48.704;9.210;2022-07-29T06:01:55;1.80;;;1.13;;
529;SDS011;251;48.704;9.210;2022-07-29T06:04:22;1.80;;;1.20;;
529;SDS011;251;48.704;9.210;2022-07-29T06:06:49;2.33;;;1.33;;
529;SDS011;251;48.704;9.210;2022-07-29T06:09:15;1.67;;;1.13;;
529;SDS011;251;48.704;9.210;2022-07-29T06:11:42;1.80;;;1.10;;
529;SDS011;251;48.704;9.210;2022-07-29T06:14:09;1.60;;;1.17;;
529;SDS011;251;48.704;9.210;2022-07-29T06:16:37;1.87;;;1.03;;
529;SDS011;251;48.704;9.210;2022-07-29T06:19:04;2.23;;;1.20;;
529;SDS011;251;48.704;9.210;2022-07-29T06:21:31;1.63;;;1.10;;
529;SDS011;251;48.704;9.210;2022-07-29T06:23:58;1.77;;;1.17;;
529;SDS011;251;48.704;9.210;2022-07-29T06:26:25;2.37;;;1.27;;
529;SDS011;251;48.704;9.210;2022-07-29T06:28:52;1.50;;;1.00;;
529;SDS011;251;48.704;9.210;2022-07-29T06:31:19;1.73;;;0.97;;
529;SDS011;251;48.704;9.210;2022-07-29T06:33:47;1.60;;;1.10;;
529;SDS011;251;48.704;9.210;2022-07-29T06:36:13;1.60;;;1.03;;
529;SDS011;251;48.704;9.210;2022-07-29T06:38:40;1.50;;;1.10;;
529;SDS011;251;48.704;9.210;2022-07-29T06:41:07;1.63;;;1.20;;
529;SDS011;251;48.704;9.210;2022-07-29T06:43:37;1.57;;;1.10;;
529;SDS011;251;48.704;9.210;2022-07-29T06:46:06;1.87;;;1.30;;
529;SDS011;251;48.704;9.210;2022-07-29T06:48:35;1.97;;;1.10;;
529;SDS011;251;48.704;9.210;2022-07-29T06:51:03;1.40;;;0.90;;
529;SDS011;251;48.704;9.210;2022-07-29T06:53:31;1.50;;;0.90;;
529;SDS011;251;48.704;9.210;2022-07-29T06:55:59;1.53;;;1.10;;
529;SDS011;251;48.704;9.210;2022-07-29T06:58:27;2.37;;;1.90;;
529;SDS011;251;48.704;9.210;2022-07-29T07:00:55;1.87;;;1.40;;
529;SDS011;251;48.704;9.210;2022-07-29T07:03:22;2.40;;;1.20;;
529;SDS011;251;48.704;9.210;2022-07-29T07:05:49;2.30;;;1.23;;
529;SDS011;251;48.704;9.210;2022-07-29T07:08:19;2.07;;;1.33;;
529;SDS011;251;48.704;9.210;2022-07-29T07:10:47;2.13;;;1.27;;
529;SDS011;251;48.704;9.210;2022-07-29T07:13:14;2.00;;;1.43;;
529;SDS011;251;48.704;9.210;2022-07-29T07:15:42;1.90;;;1.70;;
529;SDS011;251;48.704;9.210;2022-07-29T07:18:10;3.57;;;1.63;;
529;SDS011;251;48.704;9.210;2022-07-29T07:20:37;1.50;;;1.23;;
529;SDS011;251;48.704;9.210;2022-07-29T07:23:04;1.77;;;1.23;;
529;SDS011;251;48.704;9.210;2022-07-29T07:25:32;1.77;;;1.60;;
529;SDS011;251;48.704;9.210;2022-07-29T07:27:59;1.60;;;1.20;;
529;SDS011;251;48.704;9.210;2022-07-29T07:30:26;2.07;;;1.50;;
529;SDS011;251;48.704;9.210;2022-07-29T07:32:53;1.93;;;1.50;;
529;SDS011;251;48.704;9.210;2022-07-29T07:35:20;1.70;;;1.40;;
529;SDS011;251;48.704;9.210;2022-07-29T07:37:47;1.60;;;1.00;;
529;SDS011;251;48.704;9.210;2022-07-29T07:40:14;2.60;;;1.77;;
529;SDS011;251;48.704;9.210;2022-07-29T07:42:42;2.17;;;1.77;;
529;SDS011;251;48.704;9.210;2022-07-29T07:45:10;2.50;;;1.83;;
529;SDS011;251;48.704;9.210;2022-07-29T07:47:37;2.97;;;1.77;;
529;SDS011;251;48.704;9.210;2022-07-29T07:50:05;1.90;;;1.20;;
529;SDS011;251;48.704;9.210;2022-07-29T07:52:33;1.73;;;1.33;;
529;SDS011;251;48.704;9.210;2022-07-29T07:55:00;2.30;;;2.10;;
529;SDS011;251;48.704;9.210;2022-07-29T07:57:27;1.83;;;1.43;;
529;SDS011;251;48.704;9.210;2022-07-29T07:59:55;2.00;;;1.43;;
529;SDS011;251;48.704;9.210;2022-07-29T08:02:22;2.37;;;1.50;;
529;SDS011;251;48.704;9.210;2022-07-29T08:04:48;2.50;;;1.47;;
529;SDS011;251;48.704;9.210;2022-07-29T08:07:15;3.17;;;2.40;;
529;SDS011;251;48.704;9.210;2022-07-29T08:09:42;3.03;;;2.20;;
529;SDS011;251;48.704;9.210;2022-07-29T08:12:09;2.23;;;1.67;;
529;SDS011;251;48.704;9.210;2022-07-29T08:14:36;2.60;;;1.90;;
529;SDS011;251;48.704;9.210;2022-07-29T08:17:04;2.13;;;1.60;;
529;SDS011;251;48.704;9.210;2022-07-29T08:19:30;3.83;;;1.83;;
529;SDS011;251;48.704;9.210;2022-07-29T08:21:57;2.10;;;1.60;;
529;SDS011;251;48.704;9.210;2022-07-29T08:24:24;7.13;;;3.67;;
529;SDS011;251;48.704;9.210;2022-07-29T08:27:09;2.63;;;2.10;;
529;SDS011;251;48.704;9.210;2022-07-29T08:29:36;2.80;;;1.80;;
529;SDS011;251;48.704;9.210;2022-07-29T08:32:05;7.40;;;1.80;;
529;SDS011;251;48.704;9.210;2022-07-29T08:34:32;2.70;;;2.20;;
529;SDS011;251;48.704;9.210;2022-07-29T08:36:59;2.33;;;2.13;;
529;SDS011;251;48.704;9.210;2022-07-29T08:39:26;1.90;;;1.40;;
529;SDS011;251;48.704;9.210;2022-07-29T08:41:52;2.33;;;1.83;;
529;SDS011;251;48.704;9.210;2022-07-29T08:44:20;2.40;;;1.90;;
529;SDS011;251;48.704;9.210;2022-07-29T08:46:47;2.70;;;1.80;;
529;SDS011;251;48.704;9.210;2022-07-29T08:49:16;2.50;;;2.30;;
529;SDS011;251;48.704;9.210;2022-07-29T08:51:43;3.30;;;2.17;;
529;SDS011;251;48.704;9.210;2022-07-29T08:54:11;3.20;;;2.20;;
529;SDS011;251;48.704;9.210;2022-07-29T08:56:42;2.40;;;1.97;;
529;SDS011;251;48.704;9.210;2022-07-29T08:59:09;2.70;;;2.27;;
529;SDS011;251;48.704;9.210;2022-07-29T09:01:37;3.60;;;2.23;;
529;SDS011;251;48.704;9.210;2022-07-29T09:04:05;2.10;;;1.70;;
529;SDS011;251;48.704;9.210;2022-07-29T09:06:39;2.87;;;2.37;;
529;SDS011;251;48.704;9.210;2022-07-29T09:09:09;2.20;;;1.87;;
529;SDS011;251;48.704;9.210;2022-07-29T09:11:36;1.87;;;1.67;;
529;SDS011;251;48.704;9.210;2022-07-29T09:14:03;6.20;;;1.90;;
529;SDS011;251;48.704;9.210;2022-07-29T09:16:50;2.50;;;2.30;;
529;SDS011;251;48.704;9.210;2022-07-29T09:19:22;3.67;;;2.50;;
529;SDS011;251;48.704;9.210;2022-07-29T09:21:52;2.33;;;2.10;;
529;SDS011;251;48.704;9.210;2022-07-29T09:24:28;2.63;;;2.23;;
529;SDS011;251;48.704;9.210;2022-07-29T09:27:07;2.17;;;1.83;;
529;SDS011;251;48.704;9.210;2022-07-29T09:29:57;2.23;;;1.83;;
529;SDS011;251;48.704;9.210;2022-07-29T09:32:25;4.00;;;2.43;;
529;SDS011;251;48.704;9.210;2022-07-29T09:37:42;2.37;;;2.17;;
529;SDS011;251;48.704;9.210;2022-07-29T09:40:13;2.20;;;1.63;;
529;SDS011;251;48.704;9.210;2022-07-29T09:42:41;2.47;;;2.20;;
529;SDS011;251;48.704;9.210;2022-07-29T09:45:09;2.90;;;2.47;;
529;SDS011;251;48.704;9.210;2022-07-29T09:47:40;2.13;;;1.93;;
529;SDS011;251;48.704;9.210;2022-07-29T09:50:09;2.10;;;1.83;;
529;SDS011;251;48.704;9.210;2022-07-29T09:52:45;2.07;;;1.60;;
529;SDS011;251;48.704;9.210;2022-07-29T09:55:13;3.00;;;2.50;;
529;SDS011;251;48.704;9.210;2022-07-29T09:57:40;2.40;;;2.03;;
529;SDS011;251;48.704;9.210;2022-07-29T10:00:08;3.00;;;2.50;;
529;SDS011;251;48.704;9.210;2022-07-29T10:02:40;1.60;;;1.30;;
529;SDS011;251;48.704;9.210;2022-07-29T10:05:16;2.30;;;2.00;;
529;SDS011;251;48.704;9.210;2022-07-29T10:07:46;3.00;;;2.23;;
529;SDS011;251;48.704;9.210;2022-07-29T10:10:23;2.60;;;2.33;;
529;SDS011;251;48.704;9.210;2022-07-29T10:12:53;1.90;;;1.70;;
529;SDS011;251;48.704;9.210;2022-07-29T10:15:22;2.80;;;2.47;;
529;SDS011;251;48.704;9.210;2022-07-29T10:17:50;2.83;;;2.10;;
529;SDS011;251;48.704;9.210;2022-07-29T10:20:18;2.07;;;1.83;;
529;SDS011;251;48.704;9.210;2022-07-29T10:22:46;3.37;;;2.30;;
529;SDS011;251;48.704;9.210;2022-07-29T10:25:14;3.20;;;2.57;;
529;SDS011;251;48.704;9.210;2022-07-29T10:27:42;3.70;;;2.00;;
529;SDS011;251;48.704;9.210;2022-07-29T10:30:10;2.97;;;2.67;;
529;SDS011;251;48.704;9.210;2022-07-29T10:32:49;2.00;;;1.80;;
529;SDS011;251;48.704;9.210;2022-07-29T10:35:33;3.27;;;1.90;;
529;SDS011;251;48.704;9.210;2022-07-29T10:38:37;2.03;;;1.80;;
529;SDS011;251;48.704;9.210;2022-07-29T10:41:12;3.03;;;2.40;;
529;SDS011;251;48.704;9.210;2022-07-29T10:44:00;2.97;;;2.67;;
529;SDS011;251;48.704;9.210;2022-07-29T10:46:34;3.97;;;2.30;;
529;SDS011;251;48.704;9.210;2022-07-29T10:49:05;3.70;;;2.40;;
529;SDS011;251;48.704;9.210;2022-07-29T10:57:22;2.30;;;1.67;;
529;SDS011;251;48.704;9.210;2022-07-29T11:02:54;1.87;;;1.70;;
529;SDS011;251;48.704;9.210;2022-07-29T11:05:23;2.60;;;2.40;;
529;SDS011;251;48.704;9.210;2022-07-29T11:10:47;2.87;;;2.30;;
529;SDS011;251;48.704;9.210;2022-07-29T11:16:15;4.50;;;2.00;;
529;SDS011;251;48.704;9.210;2022-07-29T11:21:46;1.97;;;1.50;;
529;SDS011;251;48.704;9.210;2022-07-29T11:24:16;3.87;;;2.60;;
529;SDS011;251;48.704;9.210;2022-07-29T11:26:47;3.97;;;2.30;;
529;SDS011;251;48.704;9.210;2022-07-29T11:29:40;2.27;;;2.07;;
529;SDS011;251;48.704;9.210;2022-07-29T11:32:14;1.93;;;1.40;;
529;SDS011;251;48.704;9.210;2022-07-29T11:34:44;1.30;;;0.93;;
529;SDS011;251;48.704;9.210;2022-07-29T11:37:18;1.30;;;0.90;;
529;SDS011;251;48.704;9.210;2022-07-29T11:42:48;1.90;;;1.23;;
529;SDS011;251;48.704;9.210;2022-07-29T11:45:20;1.53;;;1.00;;
529;SDS011;251;48.704;9.210;2022-07-29T11:47:57;1.40;;;0.90;;
529;SDS011;251;48.704;9.210;2022-07-29T11:50:29;1.20;;;0.80;;
529;SDS011;251;48.704;9.210;2022-07-29T11:52:58;1.20;;;0.90;;
529;SDS011;251;48.704;9.210;2022-07-29T11:55:26;1.80;;;1.30;;
529;SDS011;251;48.704;9.210;2022-07-29T11:57:55;1.70;;;1.20;;
529;SDS011;251;48.704;9.210;2022-07-29T12:00:26;2.53;;;2.33;;
529;SDS011;251;48.704;9.210;2022-07-29T12:02:54;1.30;;;0.90;;
529;SDS011;251;48.704;9.210;2022-07-29T12:05:30;1.93;;;1.30;;
529;SDS011;251;48.704;9.210;2022-07-29T12:08:04;1.40;;;1.10;;
529;SDS011;251;48.704;9.210;2022-07-29T12:10:36;1.40;;;0.80;;
529;SDS011;251;48.704;9.210;2022-07-29T12:13:04;2.53;;;1.30;;
529;SDS011;251;48.704;9.210;2022-07-29T12:15:31;1.93;;;1.27;;
529;SDS011;251;48.704;9.210;2022-07-29T12:17:58;1.60;;;1.20;;
529;SDS011;251;48.704;9.210;2022-07-29T12:20:35;1.80;;;1.20;;
529;SDS011;251;48.704;9.210;2022-07-29T12:23:04;2.10;;;1.30;;
529;SDS011;251;48.704;9.210;2022-07-29T12:25:32;1.47;;;0.87;;
529;SDS011;251;48.704;9.210;2022-07-29T12:28:00;4.33;;;1.70;;
529;SDS011;251;48.704;9.210;2022-07-29T12:30:41;1.70;;;1.20;;
529;SDS011;251;48.704;9.210;2022-07-29T12:33:13;1.97;;;1.27;;
529;SDS011;251;48.704;9.210;2022-07-29T12:35:44;2.30;;;1.20;;
529;SDS011;251;48.704;9.210;2022-07-29T12:38:13;1.73;;;1.20;;
529;SDS011;251;48.704;9.210;2022-07-29T12:40:41;2.90;;;1.17;;
529;SDS011;251;48.704;9.210;2022-07-29T12:43:09;2.53;;;1.87;;
529;SDS011;251;48.704;9.210;2022-07-29T12:45:38;2.03;;;1.37;;
529;SDS011;251;48.704;9.210;2022-07-29T12:48:08;2.00;;;1.40;;
529;SDS011;251;48.704;9.210;2022-07-29T12:50:35;2.10;;;1.50;;
529;SDS011;251;48.704;9.210;2022-07-29T12:53:10;2.10;;;1.80;;
529;SDS011;251;48.704;9.210;2022-07-29T12:55:39;2.27;;;1.50;;
529;SDS011;251;48.704;9.210;2022-07-29T12:58:07;2.17;;;1.83;;
529;SDS011;251;48.704;9.210;2022-07-29T13:00:35;2.30;;;1.37;;
529;SDS011;251;48.704;9.210;2022-07-29T13:03:03;2.63;;;2.10;;
529;SDS011;251;48.704;9.210;2022-07-29T13:05:40;1.80;;;1.53;;
529;SDS011;251;48.704;9.210;2022-07-29T13:08:12;1.97;;;1.33;;
529;SDS011;251;48.704;9.210;2022-07-29T13:10:39;2.30;;;2.10;;
529;SDS011;251;48.704;9.210;2022-07-29T13:13:07;3.87;;;1.87;;
529;SDS011;251;48.704;9.210;2022-07-29T13:15:36;2.63;;;1.60;;
529;SDS011;251;48.704;9.210;2022-07-29T13:18:05;2.33;;;1.27;;
529;SDS011;251;48.704;9.210;2022-07-29T13:20:53;2.23;;;1.63;;
529;SDS011;251;48.704;9.210;2022-07-29T13:23:19;2.37;;;1.50;;
529;SDS011;251;48.704;9.210;2022-07-29T13:25:46;2.77;;;2.17;;
529;SDS011;251;48.704;9.210;2022-07-29T13:28:13;3.47;;;2.17;;
529;SDS011;251;48.704;9.210;2022-07-29T13:30:41;3.63;;;2.50;;
529;SDS011;251;48.704;9.210;2022-07-29T13:33:10;2.07;;;1.50;;
529;SDS011;251;48.704;9.210;2022-07-29T13:35:36;2.70;;;1.90;;
529;SDS011;251;48.704;9.210;2022-07-29T13:38:03;2.90;;;2.33;;
529;SDS011;251;48.704;9.210;2022-07-29T13:40:30;2.80;;;2.20;;
529;SDS011;251;48.704;9.210;2022-07-29T13:42:58;3.50;;;2.37;;
529;SDS011;251;48.704;9.210;2022-07-29T13:45:25;2.60;;;1.90;;
529;SDS011;251;48.704;9.210;2022-07-29T13:47:52;3.33;;;2.53;;
529;SDS011;251;48.704;9.210;2022-07-29T13:50:20;3.80;;;2.23;;
529;SDS011;251;48.704;9.210;2022-07-29T13:52:47;3.50;;;3.00;;
529;SDS011;251;48.704;9.210;2022-07-29T13:55:15;2.80;;;2.43;;
529;SDS011;251;48.704;9.210;2022-07-29T13:57:42;2.40;;;1.93;;
529;SDS011;251;48.704;9.210;2022-07-29T14:00:09;3.00;;;2.10;;
529;SDS011;251;48.704;9.210;2022-07-29T14:02:37;3.40;;;2.47;;
529;SDS011;251;48.704;9.210;2022-07-29T14:05:04;3.20;;;2.90;;
529;SDS011;251;48.704;9.210;2022-07-29T14:07:32;3.90;;;2.40;;
529;SDS011;251;48.704;9.210;2022-07-29T14:09:59;3.43;;;2.60;;
529;SDS011;251;48.704;9.210;2022-07-29T14:12:26;2.43;;;2.20;;
529;SDS011;251;48.704;9.210;2022-07-29T14:14:52;2.33;;;2.07;;
529;SDS011;251;48.704;9.210;2022-07-29T14:17:22;2.67;;;2.03;;
529;SDS011;251;48.704;9.210;2022-07-29T14:19:49;4.13;;;2.93;;
529;SDS011;251;48.704;9.210;2022-07-29T14:22:16;4.37;;;3.17;;
529;SDS011;251;48.704;9.210;2022-07-29T14:24:45;3.33;;;2.60;;
529;SDS011;251;48.704;9.210;2022-07-29T14:27:12;4.53;;;3.60;;
529;SDS011;251;48.704;9.210;2022-07-29T14:29:38;3.60;;;2.73;;
529;SDS011;251;48.704;9.210;2022-07-29T14:32:05;3.13;;;2.77;;
529;SDS011;251;48.704;9.210;2022-07-29T14:34:32;3.37;;;2.60;;
529;SDS011;251;48.704;9.210;2022-07-29T14:36:59;3.30;;;2.90;;
529;SDS011;251;48.704;9.210;2022-07-29T14:39:26;2.83;;;2.53;;
529;SDS011;251;48.704;9.210;2022-07-29T14:41:54;3.90;;;2.90;;
529;SDS011;251;48.704;9.210;2022-07-29T14:44:21;4.53;;;4.13;;
529;SDS011;251;48.704;9.210;2022-07-29T14:46:48;3.10;;;2.87;;
529;SDS011;251;48.704;9.210;2022-07-29T14:49:15;3.90;;;2.97;;
529;SDS011;251;48.704;9.210;2022-07-29T14:51:42;3.33;;;3.03;;
529;SDS011;251;48.704;9.210;2022-07-29T14:54:09;4.77;;;3.50;;
529;SDS011;251;48.704;9.210;2022-07-29T14:56:36;3.87;;;2.47;;
529;SDS011;251;48.704;9.210;2022-07-29T14:59:04;3.00;;;2.33;;
529;SDS011;251;48.704;9.210;2022-07-29T15:01:31;3.03;;;2.60;;
529;SDS011;251;48.704;9.210;2022-07-29T15:03:57;3.40;;;3.10;;
529;SDS011;251;48.704;9.210;2022-07-29T15:06:24;3.27;;;2.73;;
529;SDS011;251;48.704;9.210;2022-07-29T15:08:51;4.00;;;2.70;;
529;SDS011;251;48.704;9.210;2022-07-29T15:11:18;2.27;;;1.90;;
529;SDS011;251;48.704;9.210;2022-07-29T15:13:44;2.93;;;2.27;;
529;SDS011;251;48.704;9.210;2022-07-29T15:16:12;2.23;;;1.90;;
529;SDS011;251;48.704;9.210;2022-07-29T15:18:39;2.50;;;2.20;;
529;SDS011;251;48.704;9.210;2022-07-29T15:21:06;2.77;;;2.43;;
529;SDS011;251;48.704;9.210;2022-07-29T15:23:33;2.40;;;2.10;;
529;SDS011;251;48.704;9.210;2022-07-29T15:26:01;2.50;;;1.80;;
529;SDS011;251;48.704;9.210;2022-07-29T15:28:28;2.93;;;2.30;;
529;SDS011;251;48.704;9.210;2022-07-29T15:30:54;2.73;;;2.30;;
529;SDS011;251;48.704;9.210;2022-07-29T15:33:23;2.83;;;2.30;;
529;SDS011;251;48.704;9.210;2022-07-29T15:35:49;2.50;;;2.17;;
529;SDS011;251;48.704;9.210;2022-07-29T15:38:16;2.00;;;1.50;;
529;SDS011;251;48.704;9.210;2022-07-29T15:40:43;2.37;;;1.83;;
529;SDS011;251;48.704;9.210;2022-07-29T15:43:11;2.60;;;2.03;;
529;SDS011;251;48.704;9.210;2022-07-29T15:45:38;3.47;;;1.87;;
529;SDS011;251;48.704;9.210;2022-07-29T15:48:28;2.73;;;2.20;;
529;SDS011;251;48.704;9.210;2022-07-29T15:50:56;2.23;;;2.03;;
529;SDS011;251;48.704;9.210;2022-07-29T15:53:23;3.67;;;3.00;;
529;SDS011;251;48.704;9.210;2022-07-29T15:55:50;2.87;;;1.63;;
529;SDS011;251;48.704;9.210;2022-07-29T15:58:16;2.73;;;2.30;;
529;SDS011;251;48.704;9.210;2022-07-29T16:00:43;2.67;;;2.07;;
529;SDS011;251;48.704;9.210;2022-07-29T16:03:10;2.43;;;2.10;;
529;SDS011;251;48.704;9.210;2022-07-29T16:05:38;3.23;;;2.20;;
529;SDS011;251;48.704;9.210;2022-07-29T16:08:05;3.30;;;2.90;;
529;SDS011;251;48.704;9.210;2022-07-29T16:10:32;2.90;;;2.60;;
529;SDS011;251;48.704;9.210;2022-07-29T16:12:59;2.30;;;2.10;;
529;SDS011;251;48.704;9.210;2022-07-29T16:15:26;2.90;;;2.60;;
529;SDS011;251;48.704;9.210;2022-07-29T16:17:53;2.37;;;1.93;;
529;SDS011;251;48.704;9.210;2022-07-29T16:20:19;3.40;;;2.40;;